sensor_id;sensor_type;location;lat;lon;timestamp;P1;durP1;ratioP1;P2;durP2;ratioP2
13568;SDS011;6856;51.460;7.158;2023-07-31T00:01:59;3.47;;;2.00;;
13568;SDS011;6856;51.460;7.158;2023-07-31T00:04:34;3.77;;;1.90;;
13568;SDS011;6856;51.460;7.158;2023-07-31T00:07:08;4.63;;;2.23;;
13568;SDS011;6856;51.460;7.158;2023-07-31T00:09:42;2.90;;;1.90;;
13568;SDS011;6856;51.460;7.158;2023-07-31T00:12:16;3.53;;;1.90;;
13568;SDS011;6856;51.460;7.158;2023-07-31T00:14:50;3.27;;;1.97;;
13568;SDS011;6856;51.460;7.158;2023-07-31T00:17:23;3.47;;;1.87;;
13568;SDS011;6856;51.460;7.158;2023-07-31T00:20:00;4.37;;;1.93;;
13568;SDS011;6856;51.460;7.158;2023-07-31T00:22:34;4.13;;;2.30;;
13568;SDS011;6856;51.460;7.158;2023-07-31T00:25:09;3.13;;;2.10;;
13568;SDS011;6856;51.460;7.158;2023-07-31T00:27:43;3.37;;;2.03;;
13568;SDS011;6856;51.460;7.158;2023-07-31T00:30:17;3.73;;;2.10;;
13568;SDS011;6856;51.460;7.158;2023-07-31T00:32:51;4.80;;;2.07;;
13568;SDS011;6856;51.460;7.158;2023-07-31T00:35:27;5.53;;;2.53;;
13568;SDS011;6856;51.460;7.158;2023-07-31T00:38:00;4.67;;;2.27;;
13568;SDS011;6856;51.460;7.158;2023-07-31T00:40:35;6.20;;;1.97;;
13568;SDS011;6856;51.460;7.158;2023-07-31T00:43:10;7.17;;;2.37;;
13568;SDS011;6856;51.460;7.158;2023-07-31T00:45:44;7.10;;;2.43;;
13568;SDS011;6856;51.460;7.158;2023-07-31T00:48:18;4.90;;;2.53;;
13568;SDS011;6856;51.460;7.158;2023-07-31T00:50:53;5.70;;;2.50;;
13568;SDS011;6856;51.460;7.158;2023-07-31T00:53:29;3.93;;;2.27;;
13568;SDS011;6856;51.460;7.158;2023-07-31T00:56:03;4.67;;;2.43;;
13568;SDS011;6856;51.460;7.158;2023-07-31T00:58:38;4.73;;;2.40;;
13568;SDS011;6856;51.460;7.158;2023-07-31T01:01:12;4.40;;;2.43;;
13568;SDS011;6856;51.460;7.158;2023-07-31T01:03:46;3.07;;;2.17;;
13568;SDS011;6856;51.460;7.158;2023-07-31T01:06:25;4.40;;;2.50;;
13568;SDS011;6856;51.460;7.158;2023-07-31T01:09:12;5.23;;;2.43;;
13568;SDS011;6856;51.460;7.158;2023-07-31T01:12:02;7.53;;;2.63;;
13568;SDS011;6856;51.460;7.158;2023-07-31T01:14:39;7.97;;;2.70;;
13568;SDS011;6856;51.460;7.158;2023-07-31T01:17:13;5.20;;;2.93;;
13568;SDS011;6856;51.460;7.158;2023-07-31T01:19:47;4.63;;;2.50;;
13568;SDS011;6856;51.460;7.158;2023-07-31T01:22:27;5.37;;;3.00;;
13568;SDS011;6856;51.460;7.158;2023-07-31T01:25:25;5.27;;;2.30;;
13568;SDS011;6856;51.460;7.158;2023-07-31T01:28:25;4.93;;;2.80;;
13568;SDS011;6856;51.460;7.158;2023-07-31T01:31:06;3.83;;;2.30;;
13568;SDS011;6856;51.460;7.158;2023-07-31T01:33:44;5.50;;;2.60;;
13568;SDS011;6856;51.460;7.158;2023-07-31T01:36:19;4.50;;;2.50;;
13568;SDS011;6856;51.460;7.158;2023-07-31T01:38:57;4.30;;;2.60;;
13568;SDS011;6856;51.460;7.158;2023-07-31T01:41:33;5.80;;;2.97;;
13568;SDS011;6856;51.460;7.158;2023-07-31T01:44:07;5.87;;;2.30;;
13568;SDS011;6856;51.460;7.158;2023-07-31T01:46:40;3.93;;;2.10;;
13568;SDS011;6856;51.460;7.158;2023-07-31T01:49:14;4.80;;;2.20;;
13568;SDS011;6856;51.460;7.158;2023-07-31T01:51:48;4.67;;;2.63;;
13568;SDS011;6856;51.460;7.158;2023-07-31T01:54:22;5.43;;;2.60;;
13568;SDS011;6856;51.460;7.158;2023-07-31T01:56:57;4.43;;;2.20;;
13568;SDS011;6856;51.460;7.158;2023-07-31T01:59:31;4.80;;;2.30;;
13568;SDS011;6856;51.460;7.158;2023-07-31T02:02:05;4.43;;;2.30;;
13568;SDS011;6856;51.460;7.158;2023-07-31T02:04:39;4.70;;;2.60;;
13568;SDS011;6856;51.460;7.158;2023-07-31T02:07:14;6.23;;;2.53;;
13568;SDS011;6856;51.460;7.158;2023-07-31T02:09:48;6.60;;;3.07;;
13568;SDS011;6856;51.460;7.158;2023-07-31T02:12:23;5.43;;;2.80;;
13568;SDS011;6856;51.460;7.158;2023-07-31T02:14:57;5.77;;;2.30;;
13568;SDS011;6856;51.460;7.158;2023-07-31T02:17:31;5.70;;;2.80;;
13568;SDS011;6856;51.460;7.158;2023-07-31T02:20:05;4.47;;;2.30;;
13568;SDS011;6856;51.460;7.158;2023-07-31T02:22:40;5.63;;;2.77;;
13568;SDS011;6856;51.460;7.158;2023-07-31T02:28:16;4.33;;;2.27;;
13568;SDS011;6856;51.460;7.158;2023-07-31T02:30:50;5.73;;;2.77;;
13568;SDS011;6856;51.460;7.158;2023-07-31T02:33:24;5.00;;;2.33;;
13568;SDS011;6856;51.460;7.158;2023-07-31T02:35:58;4.83;;;2.30;;
13568;SDS011;6856;51.460;7.158;2023-07-31T02:38:32;3.83;;;2.60;;
13568;SDS011;6856;51.460;7.158;2023-07-31T02:41:06;5.80;;;2.30;;
13568;SDS011;6856;51.460;7.158;2023-07-31T02:43:41;5.00;;;2.53;;
13568;SDS011;6856;51.460;7.158;2023-07-31T02:46:15;5.87;;;2.40;;
13568;SDS011;6856;51.460;7.158;2023-07-31T02:48:49;5.83;;;2.40;;
13568;SDS011;6856;51.460;7.158;2023-07-31T02:51:23;5.27;;;2.93;;
13568;SDS011;6856;51.460;7.158;2023-07-31T02:53:57;5.00;;;2.67;;
13568;SDS011;6856;51.460;7.158;2023-07-31T02:56:32;5.30;;;2.60;;
13568;SDS011;6856;51.460;7.158;2023-07-31T02:59:07;5.43;;;2.97;;
13568;SDS011;6856;51.460;7.158;2023-07-31T03:01:41;5.33;;;2.97;;
13568;SDS011;6856;51.460;7.158;2023-07-31T03:04:15;4.77;;;2.70;;
13568;SDS011;6856;51.460;7.158;2023-07-31T03:06:49;5.77;;;2.73;;
13568;SDS011;6856;51.460;7.158;2023-07-31T03:09:23;4.90;;;2.67;;
13568;SDS011;6856;51.460;7.158;2023-07-31T03:11:56;4.93;;;2.67;;
13568;SDS011;6856;51.460;7.158;2023-07-31T03:14:32;5.97;;;3.07;;
13568;SDS011;6856;51.460;7.158;2023-07-31T03:17:05;8.67;;;2.73;;
13568;SDS011;6856;51.460;7.158;2023-07-31T03:19:39;5.50;;;2.87;;
13568;SDS011;6856;51.460;7.158;2023-07-31T03:22:13;5.50;;;2.80;;
13568;SDS011;6856;51.460;7.158;2023-07-31T03:24:47;7.97;;;3.23;;
13568;SDS011;6856;51.460;7.158;2023-07-31T03:27:21;6.83;;;2.70;;
13568;SDS011;6856;51.460;7.158;2023-07-31T03:29:56;4.97;;;2.80;;
13568;SDS011;6856;51.460;7.158;2023-07-31T03:32:31;5.77;;;3.07;;
13568;SDS011;6856;51.460;7.158;2023-07-31T03:35:05;5.77;;;3.10;;
13568;SDS011;6856;51.460;7.158;2023-07-31T03:37:40;4.50;;;2.60;;
13568;SDS011;6856;51.460;7.158;2023-07-31T03:40:13;4.37;;;2.63;;
13568;SDS011;6856;51.460;7.158;2023-07-31T03:42:47;4.90;;;2.63;;
13568;SDS011;6856;51.460;7.158;2023-07-31T03:45:23;3.47;;;2.10;;
13568;SDS011;6856;51.460;7.158;2023-07-31T03:47:56;5.53;;;2.40;;
13568;SDS011;6856;51.460;7.158;2023-07-31T03:50:30;6.27;;;2.47;;
13568;SDS011;6856;51.460;7.158;2023-07-31T03:53:04;6.73;;;3.07;;
13568;SDS011;6856;51.460;7.158;2023-07-31T03:55:38;4.60;;;2.37;;
13568;SDS011;6856;51.460;7.158;2023-07-31T03:58:12;6.43;;;2.87;;
13568;SDS011;6856;51.460;7.158;2023-07-31T04:00:48;5.23;;;2.50;;
13568;SDS011;6856;51.460;7.158;2023-07-31T04:03:21;6.97;;;2.70;;
13568;SDS011;6856;51.460;7.158;2023-07-31T04:05:55;4.60;;;2.57;;
13568;SDS011;6856;51.460;7.158;2023-07-31T04:08:29;5.13;;;2.70;;
13568;SDS011;6856;51.460;7.158;2023-07-31T04:11:03;5.57;;;2.80;;
13568;SDS011;6856;51.460;7.158;2023-07-31T04:13:37;3.80;;;2.23;;
13568;SDS011;6856;51.460;7.158;2023-07-31T04:16:12;4.37;;;2.67;;
13568;SDS011;6856;51.460;7.158;2023-07-31T04:18:45;5.03;;;2.67;;
13568;SDS011;6856;51.460;7.158;2023-07-31T04:21:19;5.60;;;2.40;;
13568;SDS011;6856;51.460;7.158;2023-07-31T04:23:54;6.43;;;2.40;;
13568;SDS011;6856;51.460;7.158;2023-07-31T04:26:30;5.70;;;2.97;;
13568;SDS011;6856;51.460;7.158;2023-07-31T04:29:03;4.80;;;2.40;;
13568;SDS011;6856;51.460;7.158;2023-07-31T04:31:38;5.57;;;2.93;;
13568;SDS011;6856;51.460;7.158;2023-07-31T04:34:12;7.47;;;3.37;;
13568;SDS011;6856;51.460;7.158;2023-07-31T04:36:46;5.23;;;2.70;;
13568;SDS011;6856;51.460;7.158;2023-07-31T04:39:20;6.10;;;2.73;;
13568;SDS011;6856;51.460;7.158;2023-07-31T04:41:53;6.07;;;2.83;;
13568;SDS011;6856;51.460;7.158;2023-07-31T04:44:27;3.97;;;2.50;;
13568;SDS011;6856;51.460;7.158;2023-07-31T04:47:03;3.97;;;2.50;;
13568;SDS011;6856;51.460;7.158;2023-07-31T04:49:37;5.87;;;2.97;;
13568;SDS011;6856;51.460;7.158;2023-07-31T04:52:11;3.83;;;2.30;;
13568;SDS011;6856;51.460;7.158;2023-07-31T04:54:45;4.23;;;2.60;;
13568;SDS011;6856;51.460;7.158;2023-07-31T04:57:19;5.80;;;2.80;;
13568;SDS011;6856;51.460;7.158;2023-07-31T04:59:53;4.70;;;2.40;;
13568;SDS011;6856;51.460;7.158;2023-07-31T05:02:33;4.10;;;2.37;;
13568;SDS011;6856;51.460;7.158;2023-07-31T05:05:15;6.83;;;2.27;;
13568;SDS011;6856;51.460;7.158;2023-07-31T05:07:49;8.27;;;2.87;;
13568;SDS011;6856;51.460;7.158;2023-07-31T05:10:22;4.03;;;2.73;;
13568;SDS011;6856;51.460;7.158;2023-07-31T05:12:56;4.73;;;2.50;;
13568;SDS011;6856;51.460;7.158;2023-07-31T05:15:30;5.43;;;2.77;;
13568;SDS011;6856;51.460;7.158;2023-07-31T05:18:06;5.27;;;2.77;;
13568;SDS011;6856;51.460;7.158;2023-07-31T05:20:40;4.23;;;2.70;;
13568;SDS011;6856;51.460;7.158;2023-07-31T05:23:14;5.37;;;3.10;;
13568;SDS011;6856;51.460;7.158;2023-07-31T05:25:48;5.17;;;2.53;;
13568;SDS011;6856;51.460;7.158;2023-07-31T05:28:22;6.07;;;2.57;;
13568;SDS011;6856;51.460;7.158;2023-07-31T05:30:58;2.80;;;2.03;;
13568;SDS011;6856;51.460;7.158;2023-07-31T05:33:35;4.40;;;2.57;;
13568;SDS011;6856;51.460;7.158;2023-07-31T05:36:08;5.80;;;3.20;;
13568;SDS011;6856;51.460;7.158;2023-07-31T05:38:43;4.73;;;2.70;;
13568;SDS011;6856;51.460;7.158;2023-07-31T05:41:18;5.73;;;2.80;;
13568;SDS011;6856;51.460;7.158;2023-07-31T05:43:52;5.23;;;2.47;;
13568;SDS011;6856;51.460;7.158;2023-07-31T05:46:26;6.10;;;2.90;;
13568;SDS011;6856;51.460;7.158;2023-07-31T05:49:01;5.10;;;2.73;;
13568;SDS011;6856;51.460;7.158;2023-07-31T05:51:35;6.43;;;2.63;;
13568;SDS011;6856;51.460;7.158;2023-07-31T05:54:09;5.93;;;2.80;;
13568;SDS011;6856;51.460;7.158;2023-07-31T05:56:43;5.27;;;2.80;;
13568;SDS011;6856;51.460;7.158;2023-07-31T05:59:17;4.70;;;2.03;;
13568;SDS011;6856;51.460;7.158;2023-07-31T06:01:51;4.40;;;2.73;;
13568;SDS011;6856;51.460;7.158;2023-07-31T06:04:27;5.00;;;2.50;;
13568;SDS011;6856;51.460;7.158;2023-07-31T06:07:01;6.50;;;2.87;;
13568;SDS011;6856;51.460;7.158;2023-07-31T06:09:35;4.53;;;2.47;;
13568;SDS011;6856;51.460;7.158;2023-07-31T06:12:09;4.60;;;2.60;;
13568;SDS011;6856;51.460;7.158;2023-07-31T06:14:43;3.93;;;2.60;;
13568;SDS011;6856;51.460;7.158;2023-07-31T06:17:17;3.83;;;2.57;;
13568;SDS011;6856;51.460;7.158;2023-07-31T06:19:52;5.33;;;2.87;;
13568;SDS011;6856;51.460;7.158;2023-07-31T06:22:26;5.77;;;2.90;;
13568;SDS011;6856;51.460;7.158;2023-07-31T06:25:00;5.17;;;3.10;;
13568;SDS011;6856;51.460;7.158;2023-07-31T06:27:33;4.00;;;2.43;;
13568;SDS011;6856;51.460;7.158;2023-07-31T06:30:08;3.80;;;2.37;;
13568;SDS011;6856;51.460;7.158;2023-07-31T06:32:43;5.77;;;2.60;;
13568;SDS011;6856;51.460;7.158;2023-07-31T06:35:18;4.53;;;2.70;;
13568;SDS011;6856;51.460;7.158;2023-07-31T06:37:52;6.10;;;3.13;;
13568;SDS011;6856;51.460;7.158;2023-07-31T06:40:26;4.53;;;3.07;;
13568;SDS011;6856;51.460;7.158;2023-07-31T06:43:00;4.10;;;2.57;;
13568;SDS011;6856;51.460;7.158;2023-07-31T06:45:39;5.63;;;2.93;;
13568;SDS011;6856;51.460;7.158;2023-07-31T06:48:14;5.57;;;2.90;;
13568;SDS011;6856;51.460;7.158;2023-07-31T06:50:49;3.90;;;2.40;;
13568;SDS011;6856;51.460;7.158;2023-07-31T06:53:22;3.73;;;2.77;;
13568;SDS011;6856;51.460;7.158;2023-07-31T06:55:58;5.30;;;2.77;;
13568;SDS011;6856;51.460;7.158;2023-07-31T06:58:32;5.80;;;2.33;;
13568;SDS011;6856;51.460;7.158;2023-07-31T07:01:05;7.00;;;3.27;;
13568;SDS011;6856;51.460;7.158;2023-07-31T07:03:40;3.53;;;2.20;;
13568;SDS011;6856;51.460;7.158;2023-07-31T07:06:16;3.67;;;2.47;;
13568;SDS011;6856;51.460;7.158;2023-07-31T07:08:50;5.83;;;2.83;;
13568;SDS011;6856;51.460;7.158;2023-07-31T07:11:23;5.07;;;2.77;;
13568;SDS011;6856;51.460;7.158;2023-07-31T07:13:57;4.20;;;2.43;;
13568;SDS011;6856;51.460;7.158;2023-07-31T07:16:31;7.17;;;3.07;;
13568;SDS011;6856;51.460;7.158;2023-07-31T07:19:05;3.33;;;2.10;;
13568;SDS011;6856;51.460;7.158;2023-07-31T07:21:40;3.80;;;2.57;;
13568;SDS011;6856;51.460;7.158;2023-07-31T07:24:14;4.97;;;2.87;;
13568;SDS011;6856;51.460;7.158;2023-07-31T07:26:48;4.03;;;2.73;;
13568;SDS011;6856;51.460;7.158;2023-07-31T07:29:22;5.90;;;2.77;;
13568;SDS011;6856;51.460;7.158;2023-07-31T07:31:56;4.80;;;2.00;;
13568;SDS011;6856;51.460;7.158;2023-07-31T07:34:29;3.07;;;2.10;;
13568;SDS011;6856;51.460;7.158;2023-07-31T07:37:05;4.30;;;2.23;;
13568;SDS011;6856;51.460;7.158;2023-07-31T07:39:39;4.17;;;2.10;;
13568;SDS011;6856;51.460;7.158;2023-07-31T07:42:14;3.50;;;2.13;;
13568;SDS011;6856;51.460;7.158;2023-07-31T07:44:48;3.40;;;2.17;;
13568;SDS011;6856;51.460;7.158;2023-07-31T07:50:20;6.80;;;2.33;;
13568;SDS011;6856;51.460;7.158;2023-07-31T07:52:55;3.00;;;2.00;;
13568;SDS011;6856;51.460;7.158;2023-07-31T07:55:29;3.40;;;2.23;;
13568;SDS011;6856;51.460;7.158;2023-07-31T07:58:03;4.33;;;2.17;;
13568;SDS011;6856;51.460;7.158;2023-07-31T08:00:39;4.87;;;2.47;;
13568;SDS011;6856;51.460;7.158;2023-07-31T08:03:13;3.23;;;2.30;;
13568;SDS011;6856;51.460;7.158;2023-07-31T08:05:48;3.37;;;2.00;;
13568;SDS011;6856;51.460;7.158;2023-07-31T08:08:24;4.53;;;2.40;;
13568;SDS011;6856;51.460;7.158;2023-07-31T08:10:57;3.43;;;2.10;;
13568;SDS011;6856;51.460;7.158;2023-07-31T08:13:31;3.20;;;1.83;;
13568;SDS011;6856;51.460;7.158;2023-07-31T08:16:05;3.77;;;2.40;;
13568;SDS011;6856;51.460;7.158;2023-07-31T08:18:39;3.07;;;2.03;;
13568;SDS011;6856;51.460;7.158;2023-07-31T08:21:14;3.43;;;2.10;;
13568;SDS011;6856;51.460;7.158;2023-07-31T08:23:49;4.30;;;2.20;;
13568;SDS011;6856;51.460;7.158;2023-07-31T08:26:23;4.47;;;2.23;;
13568;SDS011;6856;51.460;7.158;2023-07-31T08:28:56;3.03;;;1.97;;
13568;SDS011;6856;51.460;7.158;2023-07-31T08:31:30;3.67;;;1.87;;
13568;SDS011;6856;51.460;7.158;2023-07-31T08:34:03;2.90;;;1.70;;
13568;SDS011;6856;51.460;7.158;2023-07-31T08:36:37;3.30;;;1.67;;
13568;SDS011;6856;51.460;7.158;2023-07-31T08:39:13;2.47;;;1.70;;
13568;SDS011;6856;51.460;7.158;2023-07-31T08:41:47;3.47;;;1.87;;
13568;SDS011;6856;51.460;7.158;2023-07-31T08:44:22;2.77;;;1.50;;
13568;SDS011;6856;51.460;7.158;2023-07-31T08:46:56;2.83;;;1.63;;
13568;SDS011;6856;51.460;7.158;2023-07-31T08:49:29;2.37;;;1.77;;
13568;SDS011;6856;51.460;7.158;2023-07-31T08:52:05;4.27;;;1.77;;
13568;SDS011;6856;51.460;7.158;2023-07-31T08:54:41;2.17;;;1.53;;
13568;SDS011;6856;51.460;7.158;2023-07-31T08:57:15;2.20;;;1.60;;
13568;SDS011;6856;51.460;7.158;2023-07-31T08:59:49;3.57;;;1.80;;
13568;SDS011;6856;51.460;7.158;2023-07-31T09:02:25;3.50;;;2.00;;
13568;SDS011;6856;51.460;7.158;2023-07-31T09:05:07;2.63;;;1.73;;
13568;SDS011;6856;51.460;7.158;2023-07-31T09:07:45;2.93;;;1.87;;
13568;SDS011;6856;51.460;7.158;2023-07-31T09:10:24;2.70;;;1.67;;
13568;SDS011;6856;51.460;7.158;2023-07-31T09:12:57;3.13;;;1.83;;
13568;SDS011;6856;51.460;7.158;2023-07-31T09:15:32;3.17;;;1.70;;
13568;SDS011;6856;51.460;7.158;2023-07-31T09:18:09;3.33;;;1.70;;
13568;SDS011;6856;51.460;7.158;2023-07-31T09:20:43;2.43;;;1.53;;
13568;SDS011;6856;51.460;7.158;2023-07-31T09:23:16;2.50;;;1.60;;
13568;SDS011;6856;51.460;7.158;2023-07-31T09:25:55;2.77;;;1.53;;
13568;SDS011;6856;51.460;7.158;2023-07-31T09:28:30;2.17;;;1.60;;
13568;SDS011;6856;51.460;7.158;2023-07-31T09:31:04;1.97;;;1.30;;
13568;SDS011;6856;51.460;7.158;2023-07-31T09:33:44;2.17;;;1.40;;
13568;SDS011;6856;51.460;7.158;2023-07-31T09:36:29;2.37;;;1.43;;
13568;SDS011;6856;51.460;7.158;2023-07-31T09:39:04;2.20;;;1.37;;
13568;SDS011;6856;51.460;7.158;2023-07-31T09:41:40;1.87;;;1.30;;
13568;SDS011;6856;51.460;7.158;2023-07-31T09:44:16;2.03;;;1.30;;
13568;SDS011;6856;51.460;7.158;2023-07-31T09:46:49;2.50;;;1.50;;
13568;SDS011;6856;51.460;7.158;2023-07-31T09:49:22;2.40;;;1.57;;
13568;SDS011;6856;51.460;7.158;2023-07-31T09:51:58;2.17;;;1.37;;
13568;SDS011;6856;51.460;7.158;2023-07-31T09:54:32;1.53;;;1.10;;
13568;SDS011;6856;51.460;7.158;2023-07-31T09:57:10;1.90;;;1.20;;
13568;SDS011;6856;51.460;7.158;2023-07-31T09:59:45;4.33;;;1.30;;
13568;SDS011;6856;51.460;7.158;2023-07-31T10:02:21;1.50;;;1.23;;
13568;SDS011;6856;51.460;7.158;2023-07-31T10:04:56;2.87;;;1.37;;
13568;SDS011;6856;51.460;7.158;2023-07-31T10:07:36;1.60;;;1.20;;
13568;SDS011;6856;51.460;7.158;2023-07-31T10:10:12;2.07;;;1.20;;
13568;SDS011;6856;51.460;7.158;2023-07-31T10:12:50;2.10;;;1.30;;
13568;SDS011;6856;51.460;7.158;2023-07-31T10:15:25;1.57;;;1.20;;
13568;SDS011;6856;51.460;7.158;2023-07-31T10:18:01;1.90;;;1.10;;
13568;SDS011;6856;51.460;7.158;2023-07-31T10:20:38;1.93;;;1.10;;
13568;SDS011;6856;51.460;7.158;2023-07-31T10:23:13;1.67;;;1.10;;
13568;SDS011;6856;51.460;7.158;2023-07-31T10:25:49;1.33;;;1.00;;
13568;SDS011;6856;51.460;7.158;2023-07-31T10:28:27;1.37;;;1.10;;
13568;SDS011;6856;51.460;7.158;2023-07-31T10:31:02;2.03;;;1.30;;
13568;SDS011;6856;51.460;7.158;2023-07-31T10:33:38;2.03;;;1.00;;
13568;SDS011;6856;51.460;7.158;2023-07-31T10:36:12;3.67;;;1.10;;
13568;SDS011;6856;51.460;7.158;2023-07-31T10:38:48;1.93;;;1.30;;
13568;SDS011;6856;51.460;7.158;2023-07-31T10:41:29;1.70;;;1.07;;
13568;SDS011;6856;51.460;7.158;2023-07-31T10:44:05;1.30;;;1.00;;
13568;SDS011;6856;51.460;7.158;2023-07-31T10:46:40;1.50;;;1.00;;
13568;SDS011;6856;51.460;7.158;2023-07-31T10:49:19;1.33;;;1.10;;
13568;SDS011;6856;51.460;7.158;2023-07-31T10:51:54;1.40;;;1.17;;
13568;SDS011;6856;51.460;7.158;2023-07-31T10:54:29;2.87;;;1.20;;
13568;SDS011;6856;51.460;7.158;2023-07-31T10:57:03;2.10;;;1.27;;
13568;SDS011;6856;51.460;7.158;2023-07-31T10:59:55;1.97;;;1.50;;
13568;SDS011;6856;51.460;7.158;2023-07-31T11:02:57;2.53;;;1.60;;
13568;SDS011;6856;51.460;7.158;2023-07-31T11:05:47;5.00;;;1.50;;
13568;SDS011;6856;51.460;7.158;2023-07-31T11:08:25;3.10;;;1.80;;
13568;SDS011;6856;51.460;7.158;2023-07-31T11:11:05;2.03;;;1.60;;
13568;SDS011;6856;51.460;7.158;2023-07-31T11:13:40;3.20;;;2.10;;
13568;SDS011;6856;51.460;7.158;2023-07-31T11:16:18;2.70;;;1.80;;
13568;SDS011;6856;51.460;7.158;2023-07-31T11:18:54;3.13;;;1.70;;
13568;SDS011;6856;51.460;7.158;2023-07-31T11:21:30;3.70;;;1.90;;
13568;SDS011;6856;51.460;7.158;2023-07-31T11:24:04;2.43;;;1.80;;
13568;SDS011;6856;51.460;7.158;2023-07-31T11:26:38;3.30;;;1.87;;
13568;SDS011;6856;51.460;7.158;2023-07-31T11:29:20;2.07;;;1.50;;
13568;SDS011;6856;51.460;7.158;2023-07-31T11:32:02;3.40;;;1.90;;
13568;SDS011;6856;51.460;7.158;2023-07-31T11:34:50;2.50;;;1.80;;
13568;SDS011;6856;51.460;7.158;2023-07-31T11:37:37;3.50;;;2.10;;
13568;SDS011;6856;51.460;7.158;2023-07-31T11:40:12;3.33;;;1.80;;
13568;SDS011;6856;51.460;7.158;2023-07-31T11:42:45;3.07;;;1.93;;
13568;SDS011;6856;51.460;7.158;2023-07-31T11:45:19;3.43;;;1.90;;
13568;SDS011;6856;51.460;7.158;2023-07-31T11:47:56;3.73;;;2.20;;
13568;SDS011;6856;51.460;7.158;2023-07-31T11:50:30;3.17;;;1.90;;
13568;SDS011;6856;51.460;7.158;2023-07-31T11:53:08;2.80;;;1.60;;
13568;SDS011;6856;51.460;7.158;2023-07-31T11:55:43;2.27;;;1.67;;
13568;SDS011;6856;51.460;7.158;2023-07-31T11:58:18;3.10;;;2.00;;
13568;SDS011;6856;51.460;7.158;2023-07-31T12:00:54;2.07;;;1.60;;
13568;SDS011;6856;51.460;7.158;2023-07-31T12:03:31;3.13;;;1.70;;
13568;SDS011;6856;51.460;7.158;2023-07-31T12:06:06;2.93;;;1.70;;
13568;SDS011;6856;51.460;7.158;2023-07-31T12:08:44;2.20;;;1.50;;
13568;SDS011;6856;51.460;7.158;2023-07-31T12:11:18;2.13;;;1.30;;
13568;SDS011;6856;51.460;7.158;2023-07-31T12:13:52;2.17;;;1.30;;
13568;SDS011;6856;51.460;7.158;2023-07-31T12:16:26;2.43;;;1.40;;
13568;SDS011;6856;51.460;7.158;2023-07-31T12:19:02;2.40;;;1.60;;
13568;SDS011;6856;51.460;7.158;2023-07-31T12:21:37;2.70;;;1.40;;
13568;SDS011;6856;51.460;7.158;2023-07-31T12:24:11;1.43;;;1.33;;
13568;SDS011;6856;51.460;7.158;2023-07-31T12:26:46;3.70;;;1.70;;
13568;SDS011;6856;51.460;7.158;2023-07-31T12:29:21;2.63;;;1.60;;
13568;SDS011;6856;51.460;7.158;2023-07-31T12:31:55;2.70;;;1.50;;
13568;SDS011;6856;51.460;7.158;2023-07-31T12:34:30;1.87;;;1.27;;
13568;SDS011;6856;51.460;7.158;2023-07-31T12:37:04;2.17;;;1.23;;
13568;SDS011;6856;51.460;7.158;2023-07-31T12:39:39;2.73;;;1.30;;
13568;SDS011;6856;51.460;7.158;2023-07-31T12:42:13;1.77;;;1.20;;
13568;SDS011;6856;51.460;7.158;2023-07-31T12:44:49;2.30;;;1.70;;
13568;SDS011;6856;51.460;7.158;2023-07-31T12:47:24;1.73;;;1.47;;
13568;SDS011;6856;51.460;7.158;2023-07-31T12:49:59;4.23;;;1.57;;
13568;SDS011;6856;51.460;7.158;2023-07-31T12:52:33;2.17;;;1.43;;
13568;SDS011;6856;51.460;7.158;2023-07-31T12:55:07;2.03;;;1.30;;
13568;SDS011;6856;51.460;7.158;2023-07-31T12:57:43;2.17;;;1.30;;
13568;SDS011;6856;51.460;7.158;2023-07-31T13:00:17;1.83;;;1.40;;
13568;SDS011;6856;51.460;7.158;2023-07-31T13:02:51;2.40;;;1.23;;
13568;SDS011;6856;51.460;7.158;2023-07-31T13:05:28;1.67;;;1.20;;
13568;SDS011;6856;51.460;7.158;2023-07-31T13:08:03;2.03;;;1.27;;
13568;SDS011;6856;51.460;7.158;2023-07-31T13:10:36;1.90;;;1.30;;
13568;SDS011;6856;51.460;7.158;2023-07-31T13:13:10;1.90;;;1.10;;
13568;SDS011;6856;51.460;7.158;2023-07-31T13:15:44;2.40;;;1.17;;
13568;SDS011;6856;51.460;7.158;2023-07-31T13:18:18;1.73;;;1.20;;
13568;SDS011;6856;51.460;7.158;2023-07-31T13:20:54;2.27;;;1.10;;
13568;SDS011;6856;51.460;7.158;2023-07-31T13:23:28;1.60;;;1.13;;
13568;SDS011;6856;51.460;7.158;2023-07-31T13:26:01;1.93;;;1.17;;
13568;SDS011;6856;51.460;7.158;2023-07-31T13:28:35;1.30;;;0.87;;
13568;SDS011;6856;51.460;7.158;2023-07-31T13:31:09;1.10;;;1.00;;
13568;SDS011;6856;51.460;7.158;2023-07-31T13:33:44;1.10;;;1.00;;
13568;SDS011;6856;51.460;7.158;2023-07-31T13:36:23;1.50;;;1.20;;
13568;SDS011;6856;51.460;7.158;2023-07-31T13:38:57;2.10;;;1.30;;
13568;SDS011;6856;51.460;7.158;2023-07-31T13:41:30;1.60;;;1.20;;
13568;SDS011;6856;51.460;7.158;2023-07-31T13:44:04;3.73;;;1.77;;
13568;SDS011;6856;51.460;7.158;2023-07-31T13:46:38;2.30;;;1.47;;
13568;SDS011;6856;51.460;7.158;2023-07-31T13:49:13;1.80;;;1.40;;
13568;SDS011;6856;51.460;7.158;2023-07-31T13:51:49;1.40;;;1.17;;
13568;SDS011;6856;51.460;7.158;2023-07-31T13:54:27;1.50;;;1.30;;
13568;SDS011;6856;51.460;7.158;2023-07-31T13:57:02;3.00;;;1.77;;
13568;SDS011;6856;51.460;7.158;2023-07-31T13:59:36;2.73;;;1.57;;
13568;SDS011;6856;51.460;7.158;2023-07-31T14:02:09;2.47;;;1.50;;
13568;SDS011;6856;51.460;7.158;2023-07-31T14:04:43;2.17;;;1.50;;
13568;SDS011;6856;51.460;7.158;2023-07-31T14:07:19;1.97;;;1.53;;
13568;SDS011;6856;51.460;7.158;2023-07-31T14:09:52;2.87;;;1.83;;
13568;SDS011;6856;51.460;7.158;2023-07-31T14:12:26;2.20;;;1.50;;
13568;SDS011;6856;51.460;7.158;2023-07-31T14:15:13;2.67;;;1.70;;
13568;SDS011;6856;51.460;7.158;2023-07-31T14:17:46;3.07;;;1.73;;
13568;SDS011;6856;51.460;7.158;2023-07-31T14:20:20;2.10;;;1.60;;
13568;SDS011;6856;51.460;7.158;2023-07-31T14:22:56;2.47;;;1.73;;
13568;SDS011;6856;51.460;7.158;2023-07-31T14:25:30;2.53;;;1.73;;
13568;SDS011;6856;51.460;7.158;2023-07-31T14:28:04;3.37;;;2.00;;
13568;SDS011;6856;51.460;7.158;2023-07-31T14:30:38;3.60;;;2.00;;
13568;SDS011;6856;51.460;7.158;2023-07-31T14:33:11;3.23;;;2.07;;
13568;SDS011;6856;51.460;7.158;2023-07-31T14:35:45;3.53;;;1.97;;
13568;SDS011;6856;51.460;7.158;2023-07-31T14:38:22;2.53;;;1.60;;
13568;SDS011;6856;51.460;7.158;2023-07-31T14:40:56;3.45;;;1.80;;
13568;SDS011;6856;51.460;7.158;2023-07-31T14:43:32;3.85;;;1.85;;
13568;SDS011;6856;51.460;7.158;2023-07-31T14:46:05;3.28;;;2.10;;
13568;SDS011;6856;51.460;7.158;2023-07-31T14:48:39;2.72;;;1.77;;
13568;SDS011;6856;51.460;7.158;2023-07-31T14:51:13;3.57;;;2.10;;
13568;SDS011;6856;51.460;7.158;2023-07-31T14:53:50;2.88;;;1.92;;
13568;SDS011;6856;51.460;7.158;2023-07-31T14:56:24;3.20;;;1.77;;
13568;SDS011;6856;51.460;7.158;2023-07-31T14:58:58;3.23;;;2.20;;
13568;SDS011;6856;51.460;7.158;2023-07-31T15:01:32;3.30;;;1.95;;
13568;SDS011;6856;51.460;7.158;2023-07-31T15:04:05;2.92;;;1.80;;
13568;SDS011;6856;51.460;7.158;2023-07-31T15:06:39;3.43;;;1.70;;
13568;SDS011;6856;51.460;7.158;2023-07-31T15:09:15;4.30;;;2.10;;
13568;SDS011;6856;51.460;7.158;2023-07-31T15:11:49;2.88;;;1.95;;
13568;SDS011;6856;51.460;7.158;2023-07-31T15:14:22;2.80;;;1.75;;
13568;SDS011;6856;51.460;7.158;2023-07-31T15:16:56;2.97;;;2.07;;
13568;SDS011;6856;51.460;7.158;2023-07-31T15:19:31;3.30;;;2.07;;
13568;SDS011;6856;51.460;7.158;2023-07-31T15:22:06;2.97;;;1.97;;
13568;SDS011;6856;51.460;7.158;2023-07-31T15:24:42;2.63;;;1.80;;
13568;SDS011;6856;51.460;7.158;2023-07-31T15:27:16;2.50;;;1.80;;
13568;SDS011;6856;51.460;7.158;2023-07-31T15:29:50;3.97;;;2.00;;
13568;SDS011;6856;51.460;7.158;2023-07-31T15:32:24;3.40;;;2.00;;
13568;SDS011;6856;51.460;7.158;2023-07-31T15:34:57;4.07;;;2.38;;
13568;SDS011;6856;51.460;7.158;2023-07-31T15:37:31;3.80;;;1.93;;
13568;SDS011;6856;51.460;7.158;2023-07-31T15:40:07;2.90;;;2.00;;
13568;SDS011;6856;51.460;7.158;2023-07-31T15:42:42;3.08;;;1.77;;
13568;SDS011;6856;51.460;7.158;2023-07-31T15:45:15;2.97;;;2.00;;
13568;SDS011;6856;51.460;7.158;2023-07-31T15:47:49;3.40;;;2.27;;
13568;SDS011;6856;51.460;7.158;2023-07-31T15:50:23;3.60;;;2.40;;
13568;SDS011;6856;51.460;7.158;2023-07-31T15:52:57;3.83;;;2.53;;
13568;SDS011;6856;51.460;7.158;2023-07-31T15:55:32;3.50;;;2.37;;